Plainfield, NJ (07062)

7:12 AM EDT on May 30, 2015 (GMT -0400)
Fire Station #161 | | Change Station
CLOSE
Current Station
Personal Weather Station
Location: Scotch Plains, NJ
Elevation: 144 ft
Nearby Weather Stations

Elev 144 ft 40.65 °N, 74.40 °W | Updated 5 seconds ago

Partly Cloudy
Partly Cloudy
67.2 °F
Feels Like 67.2 °F
N
0.0
Wind Variable Wind from SW
Gusts 0.0 mph

Today
High -- | Low -- °F
--% Chance of Precip.
Yesterday
High -- | Low -- °F
Precip. -- in
5:29 AM 8:20 PM
Waxing Gibbous, 89% visible
Pressure 30.23 in
Visibility 10.0 miles
Clouds Scattered Clouds 900 ft
Dew Point 63 °F
Humidity 87%
Rainfall 0.00 in
Snow Depth Not available.
UV 0.0 out of 12
Pollen 8.70 out of 12
Air Quality Not available.
Flu Activity Sporadic
METAR KLDJ 301055Z AUTO 00000KT 10SM SCT009 22/20 A3023 RMK AO2 T02190198

More Conditions Fewer Conditions

Pressure 30.23 in
Visibility 10.0 miles
Clouds Scattered Clouds 900 ft
Dew Point 63 °F
Humidity 87%
Rainfall 0.00 in
Snow Depth Not available.
UV 0.0 out of 12
Pollen 8.70 out of 12
Air Quality Not available.
Flu Activity Sporadic
METAR KLDJ 301055Z AUTO 00000KT 10SM SCT009 22/20 A3023 RMK AO2 T02190198

More Conditions Fewer Conditions

10-Day Weather Forecast

Almanac

Astronomy

May. 30, 2015 Rise Set
Actual Time
Civil Twilight
Nautical Twilight
Astronomical Twilight
Moon
Length of Visible Light
Length of Day
Tomorrow will be .
, % of the Moon is Illuminated

Today's Extremes

State Highs State Lows

Community

WunderPhotos

Upload Photos

1,825,481 photos uploaded!

WunderBlogs® & News

Nearby

Air Quality

  Air Quality AQ Index Pollutant
Not available.

Snow Depth

Station Depth Elevation

Earthquake Activity

City Distance Mag. Time & Date
Minimum magnitude displayed is 2.5.

Coastal Water Temperatures

Place Temperature

Stations

Nearby Weather Stations

Station Location Temp. Windchill Dew Point Humidity Wind Precip. Elev Updated Type